createdAt,value
2018-11-11T00:00:23.354Z,48.90
2018-11-11T00:02:53.413Z,48.40
2018-11-11T00:05:23.023Z,48.40
2018-11-11T00:07:51.752Z,48.90
2018-11-11T00:10:20.432Z,48.30
2018-11-11T00:12:49.131Z,48.80
2018-11-11T00:15:18.385Z,48.20
2018-11-11T00:17:48.142Z,48.60
2018-11-11T00:20:17.036Z,48.70
2018-11-11T00:22:46.622Z,48.30
2018-11-11T00:25:15.354Z,47.60
2018-11-11T00:27:43.983Z,47.80
2018-11-11T00:30:15.465Z,48.30
2018-11-11T00:32:44.141Z,48.10
2018-11-11T00:35:12.852Z,48.00
2018-11-11T00:37:41.809Z,47.40
2018-11-11T00:40:11.560Z,47.90
2018-11-11T00:42:40.283Z,48.10
2018-11-11T00:45:09.692Z,47.60
2018-11-11T00:47:38.399Z,48.20
2018-11-11T00:50:08.119Z,48.50
2018-11-11T00:52:36.838Z,48.50
2018-11-11T00:55:07.251Z,48.30
2018-11-11T00:57:35.912Z,48.40
2018-11-11T01:00:05.894Z,48.50
2018-11-11T01:02:34.580Z,49.10
2018-11-11T01:05:03.304Z,49.50
2018-11-11T01:07:31.989Z,49.90
2018-11-11T01:10:01.088Z,50.10
2018-11-11T01:12:29.763Z,50.60
2018-11-11T01:14:58.522Z,51.10
2018-11-11T01:17:27.169Z,51.20
2018-11-11T01:19:55.839Z,51.50
2018-11-11T01:22:24.532Z,52.00
2018-11-11T01:24:53.188Z,52.10
2018-11-11T01:27:21.850Z,52.30
2018-11-11T01:29:50.543Z,52.60
2018-11-11T01:32:19.235Z,52.80
2018-11-11T01:34:47.898Z,53.30
2018-11-11T01:37:16.524Z,53.40
2018-11-11T01:39:45.192Z,53.30
2018-11-11T01:44:42.320Z,53.50
2018-11-11T01:47:11.055Z,53.80
2018-11-11T01:49:39.731Z,54.00
2018-11-11T01:52:08.348Z,54.50
2018-11-11T01:54:37.006Z,54.70
2018-11-11T01:57:05.821Z,54.90
2018-11-11T01:59:34.540Z,54.90
2018-11-11T02:02:08.062Z,54.50
2018-11-11T02:07:05.452Z,54.60
2018-11-11T02:09:34.111Z,55.20
2018-11-11T02:12:02.820Z,54.60
2018-11-11T02:14:46.511Z,55.20
2018-11-11T02:17:15.164Z,54.70
2018-11-11T02:19:43.928Z,54.70
2018-11-11T02:22:12.628Z,55.20
2018-11-11T02:24:41.295Z,55.20
2018-11-11T02:27:10.094Z,54.70
2018-11-11T02:29:39.383Z,54.70
2018-11-11T02:32:08.055Z,55.30
2018-11-11T02:34:36.727Z,54.70
2018-11-11T02:37:05.440Z,55.30
2018-11-11T02:39:34.234Z,55.20
2018-11-11T02:42:02.895Z,55.00
2018-11-11T02:44:31.575Z,55.50
2018-11-11T02:47:00.269Z,55.60
2018-11-11T02:49:28.947Z,56.10
2018-11-11T02:51:57.845Z,55.60
2018-11-11T02:54:26.552Z,55.50
2018-11-11T02:56:55.221Z,55.50
2018-11-11T02:59:24.017Z,54.80
2018-11-11T03:01:52.673Z,54.70
2018-11-11T03:04:21.404Z,54.70
2018-11-11T03:09:18.414Z,54.60
2018-11-11T03:11:47.081Z,55.20
2018-11-11T03:14:15.739Z,55.10
2018-11-11T03:16:44.416Z,54.60
2018-11-11T03:19:13.119Z,55.10
2018-11-11T03:21:41.857Z,55.10
2018-11-11T03:24:10.526Z,55.20
2018-11-11T03:26:39.197Z,55.30
2018-11-11T03:29:07.837Z,54.90
2018-11-11T03:31:36.542Z,55.50
2018-11-11T03:34:05.705Z,54.80
2018-11-11T03:36:34.359Z,54.70
2018-11-11T03:39:03.068Z,55.20
2018-11-11T03:41:31.840Z,54.40
2018-11-11T03:44:00.477Z,54.80
2018-11-11T03:46:29.141Z,54.10
2018-11-11T03:48:57.804Z,54.60
2018-11-11T03:51:26.426Z,54.60
2018-11-11T03:53:55.123Z,54.70
2018-11-11T03:56:23.802Z,55.00
2018-11-11T03:58:52.591Z,54.50
2018-11-11T04:01:21.221Z,55.00
2018-11-11T04:03:49.868Z,55.00
2018-11-11T04:06:18.520Z,55.00
2018-11-11T04:08:47.204Z,54.60
2018-11-11T04:11:15.904Z,55.20
2018-11-11T04:13:44.577Z,55.10
2018-11-11T04:16:13.265Z,55.10
2018-11-11T04:18:41.926Z,55.00
2018-11-11T04:21:10.615Z,55.00
2018-11-11T04:23:39.299Z,55.00
2018-11-11T04:26:08.028Z,54.90
2018-11-11T04:28:36.677Z,54.90
2018-11-11T04:31:05.999Z,54.30
2018-11-11T04:33:34.686Z,54.30
2018-11-11T04:36:03.355Z,54.80
2018-11-11T04:38:32.021Z,54.30
2018-11-11T04:41:00.744Z,54.80
2018-11-11T04:43:29.482Z,54.80
2018-11-11T04:45:58.172Z,54.80
2018-11-11T04:48:26.887Z,54.30
2018-11-11T04:50:55.524Z,54.30
2018-11-11T04:53:24.189Z,54.90
2018-11-11T04:55:52.872Z,55.00
2018-11-11T04:58:21.595Z,55.00
2018-11-11T05:00:50.201Z,54.60
2018-11-11T05:03:18.856Z,55.10
2018-11-11T05:05:47.523Z,54.20
2018-11-11T05:08:16.180Z,54.80
2018-11-11T05:10:44.861Z,54.60
2018-11-11T05:13:13.541Z,54.40
2018-11-11T05:15:42.245Z,54.50
2018-11-11T05:18:10.894Z,53.90
2018-11-11T05:20:39.532Z,54.40
2018-11-11T05:23:08.187Z,54.00
2018-11-11T05:25:36.895Z,53.90
2018-11-11T05:28:05.563Z,54.40
2018-11-11T05:30:34.228Z,54.00
2018-11-11T05:33:02.888Z,54.30
2018-11-11T05:37:59.908Z,54.10
2018-11-11T05:40:28.610Z,54.30
2018-11-11T05:42:57.241Z,54.80
2018-11-11T05:45:25.922Z,54.80
2018-11-11T05:47:54.572Z,54.30
2018-11-11T05:50:23.342Z,54.20
2018-11-11T05:52:51.986Z,54.20
2018-11-11T05:55:20.640Z,54.20
2018-11-11T05:57:49.299Z,54.80
2018-11-11T06:00:18.813Z,54.20
2018-11-11T06:02:47.850Z,54.70
2018-11-11T06:05:17.063Z,54.70
2018-11-11T06:07:46.281Z,54.60
2018-11-11T06:10:16.201Z,54.60
2018-11-11T06:12:45.215Z,54.80
2018-11-11T06:15:15.204Z,54.90
2018-11-11T06:17:43.892Z,55.50
2018-11-11T06:20:14.154Z,55.60
2018-11-11T06:22:42.825Z,56.20
2018-11-11T06:25:11.724Z,57.20
2018-11-11T06:27:40.406Z,57.80
2018-11-11T06:30:09.972Z,56.60
2018-11-11T06:32:38.606Z,57.10
2018-11-11T06:35:07.468Z,56.30
2018-11-11T06:37:36.156Z,56.20
2018-11-11T06:40:06.685Z,56.20
2018-11-11T06:42:51.555Z,56.00
2018-11-11T06:45:24.956Z,56.50
2018-11-11T06:47:54.783Z,56.40
2018-11-11T06:53:02.503Z,56.60
2018-11-11T06:55:32.314Z,56.70
2018-11-11T06:58:01.869Z,56.20
2018-11-11T07:00:30.686Z,56.10
2018-11-11T07:03:11.308Z,56.20
2018-11-11T07:05:40.898Z,56.10
2018-11-11T07:08:10.865Z,56.70
2018-11-11T07:10:39.553Z,56.40
2018-11-11T07:13:08.200Z,56.30
2018-11-11T07:15:36.925Z,56.30
2018-11-11T07:18:05.792Z,56.80
2018-11-11T07:20:34.464Z,56.80
2018-11-11T07:23:03.196Z,57.40
2018-11-11T07:25:31.998Z,56.60
2018-11-11T07:28:00.748Z,56.60
2018-11-11T07:30:29.445Z,57.20
2018-11-11T07:32:58.108Z,56.50
2018-11-11T07:35:27.547Z,57.10
2018-11-11T07:37:56.345Z,57.20
2018-11-11T07:40:25.046Z,57.00
2018-11-11T07:42:54.533Z,57.20
2018-11-11T07:45:23.177Z,56.50
2018-11-11T07:47:52.722Z,57.00
2018-11-11T07:50:21.385Z,57.20
2018-11-11T07:52:50.080Z,56.50
2018-11-11T07:55:18.837Z,57.00
2018-11-11T07:57:47.485Z,56.90
2018-11-11T08:00:16.155Z,57.00
2018-11-11T08:02:44.898Z,57.60
2018-11-11T08:05:13.582Z,56.70
2018-11-11T08:07:42.219Z,56.60
2018-11-11T08:10:22.067Z,56.10
2018-11-11T08:12:50.817Z,56.60
2018-11-11T08:15:19.643Z,56.30
2018-11-11T08:17:48.317Z,56.90
2018-11-11T08:20:16.981Z,57.80
2018-11-11T08:22:45.814Z,56.60
2018-11-11T08:25:14.676Z,57.10
2018-11-11T08:27:43.348Z,57.60
2018-11-11T08:32:42.307Z,57.10
2018-11-11T08:35:11.022Z,57.70
2018-11-11T08:37:40.227Z,57.10
2018-11-11T08:40:09.485Z,57.40
2018-11-11T08:42:38.530Z,57.80
2018-11-11T08:45:10.792Z,57.90
2018-11-11T08:47:39.502Z,57.80
2018-11-11T08:50:26.065Z,57.30
2018-11-11T08:52:54.756Z,57.80
2018-11-11T08:55:23.419Z,57.90
2018-11-11T08:57:52.121Z,57.80
2018-11-11T09:00:20.781Z,57.30
2018-11-11T09:02:49.451Z,57.80
2018-11-11T09:05:18.119Z,57.80
2018-11-11T09:07:47.164Z,57.80
2018-11-11T09:10:15.892Z,57.20
2018-11-11T09:12:44.556Z,57.20
2018-11-11T09:15:14.408Z,57.20
2018-11-11T09:17:43.479Z,57.20
2018-11-11T09:20:13.169Z,57.20
2018-11-11T09:22:42.089Z,57.20
2018-11-11T09:25:11.165Z,57.30
2018-11-11T09:27:41.196Z,57.90
2018-11-11T09:30:12.092Z,57.80
2018-11-11T09:32:40.909Z,57.20
2018-11-11T09:35:09.978Z,57.20
2018-11-11T09:37:45.133Z,57.10
2018-11-11T09:40:14.089Z,57.00
2018-11-11T09:42:43.190Z,57.60
2018-11-11T09:45:13.589Z,56.80
2018-11-11T09:47:42.578Z,56.50
2018-11-11T09:50:13.033Z,57.60
2018-11-11T09:52:46.412Z,58.10
2018-11-11T09:55:15.348Z,59.50
2018-11-11T09:57:44.156Z,56.30
2018-11-11T10:00:16.461Z,56.40
2018-11-11T10:02:52.135Z,56.60
2018-11-11T10:05:27.972Z,56.60
2018-11-11T10:10:06.365Z,57.10
2018-11-11T10:12:40.305Z,57.20
2018-11-11T10:15:46.355Z,57.40
2018-11-11T10:18:35.920Z,57.40
2018-11-11T10:21:10.015Z,57.40
2018-11-11T10:23:43.949Z,57.10
2018-11-11T10:26:25.227Z,57.10
2018-11-11T10:31:05.681Z,57.60
2018-11-11T10:33:40.503Z,57.60
2018-11-11T10:36:17.541Z,57.20
2018-11-11T10:40:52.957Z,57.70
2018-11-11T10:43:26.849Z,57.60
2018-11-11T10:45:59.872Z,57.60
2018-11-11T10:48:31.514Z,57.10
2018-11-11T10:51:02.127Z,57.70
2018-11-11T10:53:30.761Z,57.60
2018-11-11T10:55:59.435Z,57.60
2018-11-11T10:58:28.584Z,57.20
2018-11-11T11:01:02.642Z,57.70
2018-11-11T11:03:35.517Z,57.70
2018-11-11T11:06:04.619Z,57.10
2018-11-11T11:08:33.380Z,57.10
2018-11-11T11:11:02.030Z,57.10
2018-11-11T11:13:31.108Z,57.00
2018-11-11T11:16:14.544Z,57.50
2018-11-11T11:18:43.310Z,56.90
2018-11-11T11:21:12.090Z,57.50
2018-11-11T11:23:40.883Z,57.40
2018-11-11T11:26:09.520Z,56.90
2018-11-11T11:28:38.298Z,57.30
2018-11-11T11:31:07.103Z,56.80
2018-11-11T11:33:35.747Z,56.60
2018-11-11T11:36:04.421Z,57.20
2018-11-11T11:38:33.151Z,56.60
2018-11-11T11:41:01.836Z,57.10
2018-11-11T11:43:30.468Z,57.50
2018-11-11T11:45:59.144Z,57.80
2018-11-11T11:48:27.860Z,57.60
2018-11-11T11:50:56.511Z,57.30
2018-11-11T11:53:25.441Z,57.20
2018-11-11T11:58:29.939Z,57.00
2018-11-11T12:00:58.708Z,57.10
2018-11-11T12:03:27.616Z,57.70
2018-11-11T12:05:56.327Z,57.00
2018-11-11T12:08:25.449Z,57.50
2018-11-11T12:10:54.111Z,57.60
2018-11-11T12:13:22.757Z,57.60
2018-11-11T12:15:51.420Z,57.60
2018-11-11T12:18:20.152Z,57.80
2018-11-11T12:20:48.847Z,57.00
2018-11-11T12:23:18.021Z,57.10
2018-11-11T12:25:47.270Z,57.60
2018-11-11T12:28:15.970Z,57.00
2018-11-11T12:30:44.743Z,57.60
2018-11-11T12:33:14.050Z,57.00
2018-11-11T12:35:42.777Z,57.00
2018-11-11T12:38:13.210Z,57.60
2018-11-11T12:40:41.943Z,57.80
2018-11-11T12:43:10.665Z,57.30
2018-11-11T12:45:40.105Z,57.10
2018-11-11T12:48:08.831Z,57.10
2018-11-11T12:53:05.885Z,56.50
2018-11-11T12:58:02.892Z,56.40
2018-11-11T13:02:59.960Z,56.40
2018-11-11T13:05:28.774Z,56.30
2018-11-11T13:07:58.198Z,56.20
2018-11-11T13:10:27.505Z,56.80
2018-11-11T13:12:56.206Z,56.70
2018-11-11T13:15:25.077Z,56.00
2018-11-11T13:20:22.025Z,56.20
2018-11-11T13:22:50.800Z,56.70
2018-11-11T13:25:19.443Z,56.10
2018-11-11T13:27:48.139Z,56.10
2018-11-11T13:30:17.456Z,56.60
2018-11-11T13:32:46.666Z,56.00
2018-11-11T13:35:16.139Z,56.60
2018-11-11T13:37:44.844Z,56.60
2018-11-11T13:40:15.964Z,56.10
2018-11-11T13:42:44.744Z,56.70
2018-11-11T13:45:22.532Z,57.20
2018-11-11T13:47:51.820Z,56.20
2018-11-11T13:50:24.119Z,56.70
2018-11-11T13:52:52.717Z,56.60
2018-11-11T13:55:21.960Z,56.50
2018-11-11T13:57:50.949Z,56.90
2018-11-11T14:00:23.738Z,57.00
2018-11-11T14:02:52.424Z,57.60
2018-11-11T14:05:21.140Z,57.20
2018-11-11T14:07:49.875Z,57.30
2018-11-11T14:10:18.621Z,57.40
2018-11-11T14:12:47.408Z,57.40
2018-11-11T14:15:19.998Z,57.90
2018-11-11T14:17:49.049Z,57.40
2018-11-11T14:20:19.212Z,57.50
2018-11-11T14:22:48.652Z,57.50
2018-11-11T14:25:21.168Z,57.40
2018-11-11T14:27:49.789Z,57.40
2018-11-11T14:30:20.678Z,57.30
2018-11-11T14:32:50.924Z,57.90
2018-11-11T14:35:19.595Z,57.30
2018-11-11T14:37:48.602Z,57.80
2018-11-11T14:40:23.203Z,57.20
2018-11-11T14:45:20.884Z,54.70
2018-11-11T14:47:50.835Z,55.70
2018-11-11T14:50:20.236Z,56.10
2018-11-11T14:52:49.080Z,56.00
2018-11-11T14:55:19.386Z,53.90
2018-11-11T14:57:48.020Z,54.80
2018-11-11T15:00:33.385Z,54.70
2018-11-11T15:03:10.240Z,57.10
2018-11-11T15:05:38.994Z,57.70
2018-11-11T15:08:07.780Z,57.50
2018-11-11T15:10:36.472Z,58.00
2018-11-11T15:13:05.396Z,56.80
2018-11-11T15:15:34.131Z,57.30
2018-11-11T15:18:03.296Z,56.60
2018-11-11T15:20:32.368Z,56.60
2018-11-11T15:23:01.008Z,56.60
2018-11-11T15:25:30.595Z,56.60
2018-11-11T15:27:59.237Z,56.50
2018-11-11T15:30:29.401Z,56.60
2018-11-11T15:32:58.715Z,57.10
2018-11-11T15:35:27.371Z,57.10
2018-11-11T15:37:56.088Z,57.30
2018-11-11T15:40:32.419Z,57.80
2018-11-11T15:43:01.146Z,57.20
2018-11-11T15:45:31.097Z,57.90
2018-11-11T15:48:00.122Z,57.30
2018-11-11T15:50:30.046Z,57.80
2018-11-11T15:53:04.923Z,57.60
2018-11-11T15:55:34.845Z,58.20
2018-11-11T15:58:03.565Z,57.90
2018-11-11T16:00:40.281Z,58.40
2018-11-11T16:03:08.960Z,57.90
2018-11-11T16:05:37.608Z,58.50
2018-11-11T16:08:06.273Z,57.90
2018-11-11T16:10:35.500Z,58.50
2018-11-11T16:13:04.298Z,57.80
2018-11-11T16:15:37.429Z,58.50
2018-11-11T16:18:08.119Z,57.90
2018-11-11T16:23:06.193Z,57.90
2018-11-11T16:25:35.297Z,58.00
2018-11-11T16:28:03.884Z,58.00
2018-11-11T16:30:34.111Z,58.50
2018-11-11T16:33:03.132Z,58.00
2018-11-11T16:35:32.395Z,58.50
2018-11-11T16:38:01.705Z,58.40
2018-11-11T16:40:31.891Z,57.90
2018-11-11T16:43:00.763Z,58.50
2018-11-11T16:45:30.204Z,57.80
2018-11-11T16:47:58.988Z,58.40
2018-11-11T16:50:29.411Z,58.20
2018-11-11T16:52:59.666Z,58.30
2018-11-11T16:55:29.565Z,58.30
2018-11-11T17:00:28.769Z,57.80
2018-11-11T17:02:58.285Z,57.80
2018-11-11T17:05:28.414Z,58.30
2018-11-11T17:07:57.107Z,57.80
2018-11-11T17:10:27.367Z,58.30
2018-11-11T17:12:57.129Z,57.80
2018-11-11T17:15:27.060Z,58.30
2018-11-11T17:17:55.766Z,58.00
2018-11-11T17:20:25.281Z,58.50
2018-11-11T17:22:54.994Z,58.60
2018-11-11T17:25:24.552Z,58.20
2018-11-11T17:30:23.773Z,58.30
2018-11-11T17:32:52.847Z,58.80
2018-11-11T17:35:22.165Z,58.80
2018-11-11T17:37:51.424Z,58.20
2018-11-11T17:40:22.471Z,58.90
2018-11-11T17:42:51.951Z,58.20
2018-11-11T17:45:20.717Z,58.10
2018-11-11T17:47:50.569Z,58.70
2018-11-11T17:50:27.637Z,58.10
2018-11-11T17:52:56.405Z,58.10
2018-11-11T17:55:26.341Z,58.60
2018-11-11T17:57:55.222Z,58.00
2018-11-11T18:00:25.316Z,58.00
2018-11-11T18:02:54.355Z,58.50
2018-11-11T18:05:24.376Z,57.90
2018-11-11T18:07:53.077Z,57.80
2018-11-11T18:10:24.346Z,58.20
2018-11-11T18:12:53.010Z,58.10
2018-11-11T18:15:29.165Z,58.20
2018-11-11T18:17:57.929Z,57.90
2018-11-11T18:20:28.295Z,57.20
2018-11-11T18:22:57.965Z,57.30
2018-11-11T18:25:27.098Z,57.80
2018-11-11T18:27:55.829Z,57.10
2018-11-11T18:30:27.739Z,57.30
2018-11-11T18:32:56.455Z,57.10
2018-11-11T18:35:25.388Z,57.30
2018-11-11T18:37:56.021Z,56.90
2018-11-11T18:40:26.392Z,57.40
2018-11-11T18:42:55.056Z,57.20
2018-11-11T18:45:25.341Z,55.90
2018-11-11T18:47:54.414Z,55.50
2018-11-11T18:50:24.495Z,56.10
2018-11-11T18:53:37.492Z,55.40
2018-11-11T18:56:10.249Z,54.80
2018-11-11T18:58:39.571Z,53.30
2018-11-11T19:01:12.155Z,53.80
2018-11-11T19:03:41.220Z,52.50
2018-11-11T19:06:14.219Z,53.10
2018-11-11T19:08:44.978Z,52.60
2018-11-11T19:11:14.290Z,51.20
2018-11-11T19:13:43.003Z,51.60
2018-11-11T19:16:11.659Z,51.30
2018-11-11T19:18:40.481Z,50.40
2018-11-11T19:21:09.201Z,50.20
2018-11-11T19:23:37.952Z,50.80
2018-11-11T19:26:06.763Z,49.70
2018-11-11T19:28:35.437Z,50.30
2018-11-11T19:31:04.100Z,49.70
2018-11-11T19:33:32.789Z,50.20
2018-11-11T19:36:01.445Z,49.40
2018-11-11T19:38:30.215Z,49.30
2018-11-11T19:40:58.928Z,49.10
2018-11-11T19:43:27.635Z,49.60
2018-11-11T19:45:56.358Z,49.30
2018-11-11T19:48:25.071Z,49.10
2018-11-11T19:50:53.709Z,49.00
2018-11-11T19:53:22.967Z,49.60
2018-11-11T19:55:51.665Z,49.30
2018-11-11T19:58:20.715Z,48.80
2018-11-11T20:00:49.420Z,49.40
2018-11-11T20:03:18.277Z,49.00
2018-11-11T20:05:46.941Z,49.40
2018-11-11T20:08:15.679Z,49.10
2018-11-11T20:10:44.415Z,49.20
2018-11-11T20:13:13.090Z,49.10
2018-11-11T20:15:41.789Z,49.60
2018-11-11T20:18:10.556Z,49.50
2018-11-11T20:20:40.136Z,49.50
2018-11-11T20:23:08.818Z,49.60
2018-11-11T20:25:37.600Z,49.00
2018-11-11T20:28:06.587Z,48.80
2018-11-11T20:30:37.022Z,49.30
2018-11-11T20:33:06.661Z,49.30
2018-11-11T20:35:35.491Z,49.40
2018-11-11T20:38:04.193Z,48.70
2018-11-11T20:40:32.949Z,49.20
2018-11-11T20:43:01.760Z,49.40
2018-11-11T20:45:31.909Z,49.60
2018-11-11T20:48:00.606Z,50.30
2018-11-11T20:50:30.540Z,49.10
2018-11-11T20:53:00.611Z,49.60
2018-11-11T20:55:29.256Z,48.90
2018-11-11T20:57:58.245Z,49.40
2018-11-11T21:00:28.383Z,48.80
2018-11-11T21:02:57.522Z,48.80
2018-11-11T21:05:27.275Z,48.70
2018-11-11T21:07:56.011Z,48.70
2018-11-11T21:10:27.437Z,48.50
2018-11-11T21:12:56.544Z,48.60
2018-11-11T21:15:26.725Z,49.10
2018-11-11T21:17:55.460Z,49.00
2018-11-11T21:20:26.854Z,48.90
2018-11-11T21:22:55.613Z,48.80
2018-11-11T21:25:24.353Z,48.40
2018-11-11T21:27:53.037Z,48.90
2018-11-11T21:30:23.143Z,48.20
2018-11-11T21:32:51.879Z,48.20
2018-11-11T21:35:20.604Z,48.30
2018-11-11T21:37:49.353Z,48.90
2018-11-11T21:40:19.370Z,48.70
2018-11-11T21:42:48.909Z,48.20
2018-11-11T21:45:18.794Z,48.10
2018-11-11T21:47:47.714Z,48.60
2018-11-11T21:50:17.724Z,48.50
2018-11-11T21:52:54.334Z,48.00
2018-11-11T21:55:23.250Z,48.00
2018-11-11T21:57:51.972Z,48.50
2018-11-11T22:00:20.731Z,48.00
2018-11-11T22:02:49.452Z,47.90
2018-11-11T22:05:18.132Z,48.50
2018-11-11T22:07:46.805Z,49.20
2018-11-11T22:10:15.496Z,48.50
2018-11-11T22:12:44.188Z,48.20
2018-11-11T22:15:13.388Z,47.80
2018-11-11T22:17:42.503Z,48.30
2018-11-11T22:20:11.615Z,48.20
2018-11-11T22:22:40.838Z,48.00
2018-11-11T22:25:09.552Z,47.70
2018-11-11T22:27:38.257Z,48.00
2018-11-11T22:30:10.220Z,48.60
2018-11-11T22:32:39.318Z,49.10
2018-11-11T22:35:09.357Z,49.50
2018-11-11T22:37:38.112Z,49.10
2018-11-11T22:42:35.907Z,48.60
2018-11-11T22:45:05.086Z,49.20
2018-11-11T22:47:33.808Z,48.70
2018-11-11T22:50:02.528Z,48.80
2018-11-11T22:52:31.258Z,48.30
2018-11-11T22:54:59.975Z,48.80
2018-11-11T22:57:29.046Z,48.80
2018-11-11T22:59:59.072Z,48.50
2018-11-11T23:02:28.010Z,48.30
2018-11-11T23:04:57.131Z,48.80
2018-11-11T23:07:26.044Z,48.60
2018-11-11T23:09:54.670Z,48.50
2018-11-11T23:12:23.824Z,49.10
2018-11-11T23:14:52.556Z,48.70
2018-11-11T23:17:21.236Z,49.10
2018-11-11T23:19:49.917Z,49.40
2018-11-11T23:22:18.635Z,50.00
2018-11-11T23:24:47.307Z,50.20
2018-11-11T23:27:16.389Z,50.50
2018-11-11T23:29:45.962Z,51.10
2018-11-11T23:32:15.436Z,51.50
2018-11-11T23:34:44.572Z,52.00
2018-11-11T23:37:13.333Z,52.30
2018-11-11T23:39:42.107Z,52.70
2018-11-11T23:42:10.749Z,53.10
2018-11-11T23:44:39.418Z,53.50
2018-11-11T23:47:08.065Z,53.70
2018-11-11T23:49:36.712Z,53.80
2018-11-11T23:52:05.900Z,54.30
2018-11-11T23:54:34.650Z,54.60
2018-11-11T23:59:31.639Z,54.50
